Time;durP1;ratioP1;P1;durP2;ratioP2;P2;SDS_P1;SDS_P2;PMS_P1;PMS_P2;Temp;Humidity;BMP_temperature;BMP_pressure;BME280_temperature;BME280_humidity;BME280_pressure;Samples;Min_cycle;Max_cycle;Signal;HPM_P1;HPM_P2
2021/11/02 03:51:16;;;;;;;27.15;18.85;;;;;;;;;;143749;587;46023;-93
2021/11/02 04:24:59;;;;;;;23.45;19.25;;;;;;;;;;143747;596;45031;-94
2021/11/02 04:27:43;;;;;;;23.30;19.60;;;;;;;;;;143746;565;46010;-93
2021/11/02 05:09:43;;;;;;;29.77;22.30;;;;;;;;;;143744;563;47012;-94
2021/11/02 05:49:11;;;;;;;13.50;12.10;;;;;;;;;;143737;649;47020;-91
2021/11/02 06:00:24;;;;;;;14.55;13.05;;;;;;;;;;143739;651;46020;-94
2021/11/02 06:05:51;;;;;;;16.73;13.20;;;;;;;;;;143749;578;45021;-85
2021/11/02 06:09:03;;;;;;;14.60;11.68;;;;;;;;;;143748;613;45022;-86
2021/11/02 06:29:22;;;;;;;14.20;10.20;;;;;;;;;;143745;609;46020;-90
2021/11/02 06:32:28;;;;;;;12.40;10.68;;;;;;;;;;143741;712;46914;-92
2021/11/02 06:35:29;;;;;;;13.05;11.20;;;;;;;;;;143746;622;46011;-93
2021/11/02 06:53:02;;;;;;;15.10;11.23;;;;;;;;;;143747;576;47020;-93
2021/11/02 07:17:32;;;;;;;13.40;11.50;;;;;;;;;;143750;735;45028;-92
2021/11/02 07:20:25;;;;;;;12.10;10.80;;;;;;;;;;143748;566;46022;-93
2021/11/02 08:48:54;;;;;;;16.12;11.85;;;;;;;;;;143742;605;46014;-94
2021/11/02 08:51:22;;;;;;;11.55;10.27;;;;;;;;;;143738;590;47023;-90
2021/11/02 08:53:51;;;;;;;15.30;10.65;;;;;;;;;;143746;597;45918;-89
2021/11/02 08:56:19;;;;;;;17.25;11.85;;;;;;;;;;143739;564;47021;-91
2021/11/02 08:58:48;;;;;;;12.43;11.18;;;;;;;;;;143739;665;46020;-88
2021/11/02 09:01:33;;;;;;;11.07;10.07;;;;;;;;;;143738;608;47022;-88
2021/11/02 09:04:03;;;;;;;15.60;12.13;;;;;;;;;;143738;619;46919;-89
2021/11/02 09:06:31;;;;;;;15.75;10.85;;;;;;;;;;143744;583;47020;-90
2021/11/02 09:09:00;;;;;;;10.75;9.57;;;;;;;;;;143740;605;46012;-87
2021/11/02 09:11:28;;;;;;;11.55;9.07;;;;;;;;;;143744;592;47021;-88
2021/11/02 09:13:57;;;;;;;15.45;10.75;;;;;;;;;;143746;624;45919;-88
2021/11/02 09:16:27;;;;;;;14.77;9.85;;;;;;;;;;143740;623;46014;-88
2021/11/02 09:18:56;;;;;;;18.15;11.02;;;;;;;;;;143748;575;46013;-86
2021/11/02 09:21:24;;;;;;;13.52;11.23;;;;;;;;;;143740;604;46022;-88
2021/11/02 09:23:54;;;;;;;11.93;10.70;;;;;;;;;;143742;563;46012;-88
2021/11/02 09:26:26;;;;;;;12.32;10.05;;;;;;;;;;143744;618;47021;-90
2021/11/02 09:28:54;;;;;;;12.82;9.73;;;;;;;;;;143742;594;47012;-88
2021/11/02 09:31:27;;;;;;;14.38;10.98;;;;;;;;;;143743;625;47020;-88
2021/11/02 09:33:54;;;;;;;12.63;10.13;;;;;;;;;;143737;569;46013;-88
2021/11/02 09:36:30;;;;;;;13.38;11.07;;;;;;;;;;143740;565;47020;-89
2021/11/02 09:39:05;;;;;;;11.75;10.02;;;;;;;;;;143741;644;46012;-88
2021/11/02 09:42:11;;;;;;;16.17;9.35;;;;;;;;;;143740;586;46023;-87
2021/11/02 09:45:34;;;;;;;12.23;9.32;;;;;;;;;;143745;579;46012;-87
2021/11/02 09:48:42;;;;;;;12.30;9.77;;;;;;;;;;143747;569;46021;-88
2021/11/02 09:51:59;;;;;;;15.30;10.18;;;;;;;;;;143750;570;46012;-87
2021/11/02 09:55:23;;;;;;;12.18;8.75;;;;;;;;;;143738;590;47024;-87
2021/11/02 09:58:50;;;;;;;17.40;10.23;;;;;;;;;;143744;569;46020;-88
2021/11/02 10:02:24;;;;;;;9.90;8.65;;;;;;;;;;143741;602;47020;-88
2021/11/02 10:05:54;;;;;;;10.07;9.00;;;;;;;;;;143748;608;46013;-89
2021/11/02 10:08:50;;;;;;;10.85;9.77;;;;;;;;;;143743;638;47020;-90
2021/11/02 10:11:46;;;;;;;15.82;9.98;;;;;;;;;;143745;576;46013;-87
2021/11/02 10:15:02;;;;;;;13.50;10.43;;;;;;;;;;143741;572;47020;-88
2021/11/02 10:18:12;;;;;;;15.90;10.32;;;;;;;;;;143738;584;46019;-88
2021/11/02 10:21:20;;;;;;;11.60;8.88;;;;;;;;;;143738;611;47025;-89
2021/11/02 10:24:53;;;;;;;11.60;9.30;;;;;;;;;;143746;585;46012;-89
2021/11/02 10:27:56;;;;;;;20.20;10.15;;;;;;;;;;143745;566;47018;-88
2021/11/02 10:31:02;;;;;;;12.83;9.23;;;;;;;;;;143739;585;46014;-88
2021/11/02 10:33:34;;;;;;;14.35;8.98;;;;;;;;;;143743;565;47022;-85
2021/11/02 10:36:32;;;;;;;15.07;9.75;;;;;;;;;;143744;578;46012;-85
2021/11/02 10:39:39;;;;;;;12.05;9.05;;;;;;;;;;143740;586;46020;-87
2021/11/02 10:42:54;;;;;;;15.90;9.95;;;;;;;;;;143746;664;46013;-87
2021/11/02 10:45:26;;;;;;;10.70;8.52;;;;;;;;;;143736;590;47022;-88
2021/11/02 10:48:10;;;;;;;9.43;7.57;;;;;;;;;;143746;595;46013;-88
2021/11/02 10:50:45;;;;;;;12.32;8.98;;;;;;;;;;143743;640;46014;-89
2021/11/02 10:53:21;;;;;;;9.07;8.18;;;;;;;;;;143741;669;46012;-88
2021/11/02 10:56:45;;;;;;;12.00;8.88;;;;;;;;;;143745;614;46022;-86
2021/11/02 10:59:17;;;;;;;13.40;9.30;;;;;;;;;;143743;566;46012;-88
2021/11/02 11:01:44;;;;;;;11.12;8.85;;;;;;;;;;143744;660;47020;-88
2021/11/02 11:04:14;;;;;;;17.02;7.82;;;;;;;;;;143745;577;46045;-86
2021/11/02 11:06:45;;;;;;;13.02;9.40;;;;;;;;;;143734;616;46022;-86
2021/11/02 11:09:13;;;;;;;12.77;10.45;;;;;;;;;;143742;595;47020;-87
2021/11/02 11:11:46;;;;;;;13.73;12.02;;;;;;;;;;143737;597;46021;-87
2021/11/02 11:14:15;;;;;;;10.00;9.02;;;;;;;;;;143743;664;46018;-85
2021/11/02 11:16:47;;;;;;;39.25;24.35;;;;;;;;;;143743;570;47020;-87
2021/11/02 11:19:27;;;;;;;22.00;17.10;;;;;;;;;;143735;587;46049;-86
2021/11/02 11:22:00;;;;;;;12.68;11.35;;;;;;;;;;143732;609;47020;-87
2021/11/02 11:24:35;;;;;;;13.27;10.52;;;;;;;;;;143739;593;46020;-86
2021/11/02 11:27:09;;;;;;;11.25;7.30;;;;;;;;;;143731;599;47020;-87
2021/11/02 11:29:43;;;;;;;13.52;8.13;;;;;;;;;;143742;580;47012;-90
2021/11/02 11:32:11;;;;;;;25.35;11.07;;;;;;;;;;143737;569;46015;-86
2021/11/02 11:34:42;;;;;;;13.30;9.80;;;;;;;;;;143734;583;46013;-92
2021/11/02 11:37:14;;;;;;;11.43;7.55;;;;;;;;;;143739;582;47022;-92
2021/11/02 11:39:44;;;;;;;13.95;10.45;;;;;;;;;;143745;569;46012;-89
2021/11/02 11:42:18;;;;;;;28.17;18.35;;;;;;;;;;143735;567;45584;-91
2021/11/02 11:44:51;;;;;;;24.52;19.65;;;;;;;;;;143740;566;46012;-90
2021/11/02 11:47:22;;;;;;;;;;;;;;;;;;143745;981;47022;-88
2021/11/02 11:50:33;;;;;;;28.50;21.75;;;;;;;;;;143750;589;46020;-87
2021/11/02 11:53:09;;;;;;;23.58;21.02;;;;;;;;;;143741;563;47020;-88
2021/11/02 11:55:45;;;;;;;34.72;26.40;;;;;;;;;;143747;569;46010;-87
2021/11/02 11:58:22;;;;;;;35.33;26.30;;;;;;;;;;143740;583;46022;-86
2021/11/02 12:00:51;;;;;;;28.52;22.23;;;;;;;;;;143738;618;47020;-88
2021/11/02 12:03:39;;;;;;;32.58;24.67;;;;;;;;;;143739;604;47021;-88
2021/11/02 12:06:50;;;;;;;28.25;23.10;;;;;;;;;;143741;583;46020;-86
2021/11/02 12:09:20;;;;;;;29.58;24.27;;;;;;;;;;143743;643;46022;-87
2021/11/02 12:11:48;;;;;;;28.95;23.17;;;;;;;;;;143737;607;46022;-89
2021/11/02 12:14:25;;;;;;;28.92;22.33;;;;;;;;;;143741;586;47020;-88
2021/11/02 12:16:57;;;;;;;33.47;22.73;;;;;;;;;;143741;606;47019;-87
2021/11/02 12:25:58;;;;;;;28.75;25.12;;;;;;;;;;143739;602;47021;-90
2021/11/02 12:28:36;;;;;;;38.83;32.83;;;;;;;;;;143741;602;46010;-87
2021/11/02 12:31:05;;;;;;;36.50;29.05;;;;;;;;;;143738;585;47022;-88
2021/11/02 12:33:36;;;;;;;41.42;32.78;;;;;;;;;;143740;608;46021;-87
2021/11/02 12:36:07;;;;;;;33.70;25.45;;;;;;;;;;143742;577;46020;-87
2021/11/02 12:38:42;;;;;;;25.23;19.52;;;;;;;;;;143740;569;47010;-87
2021/11/02 12:41:23;;;;;;;29.63;21.05;;;;;;;;;;143740;564;47023;-88
2021/11/02 12:44:12;;;;;;;25.52;18.17;;;;;;;;;;143739;565;46010;-83
2021/11/02 12:46:44;;;;;;;23.65;18.40;;;;;;;;;;143743;564;46021;-87
2021/11/02 12:56:16;;;;;;;22.20;17.92;;;;;;;;;;143740;576;46021;-86
2021/11/02 12:58:46;;;;;;;26.60;18.55;;;;;;;;;;143745;571;46020;-86
2021/11/02 13:01:28;;;;;;;20.10;17.65;;;;;;;;;;143742;570;46011;-87
2021/11/02 13:03:55;;;;;;;29.15;17.15;;;;;;;;;;143746;570;46023;-86
2021/11/02 13:06:39;;;;;;;20.23;18.05;;;;;;;;;;143739;564;46010;-88
2021/11/02 13:09:07;;;;;;;22.48;18.08;;;;;;;;;;143742;600;47020;-87
2021/11/02 13:11:36;;;;;;;22.20;19.42;;;;;;;;;;143743;577;46010;-87
2021/11/02 13:14:12;;;;;;;25.37;19.55;;;;;;;;;;143741;581;46022;-88
2021/11/02 13:16:59;;;;;;;21.05;18.42;;;;;;;;;;143746;610;46021;-86
2021/11/02 13:19:43;;;;;;;23.62;17.75;;;;;;;;;;143741;565;46020;-87
2021/11/02 13:22:18;;;;;;;24.65;18.00;;;;;;;;;;143743;600;46020;-88
2021/11/02 13:25:09;;;;;;;31.33;19.58;;;;;;;;;;143740;564;47022;-89
2021/11/02 13:27:42;;;;;;;21.83;18.45;;;;;;;;;;143742;564;46020;-87
2021/11/02 13:30:31;;;;;;;23.95;19.40;;;;;;;;;;143742;603;47020;-87
2021/11/02 13:33:07;;;;;;;21.05;18.87;;;;;;;;;;143745;588;46021;-86
2021/11/02 13:35:41;;;;;;;24.58;19.25;;;;;;;;;;143741;624;46022;-85
2021/11/02 13:38:30;;;;;;;27.13;20.15;;;;;;;;;;143740;563;46020;-87
2021/11/02 13:41:21;;;;;;;22.58;20.17;;;;;;;;;;143742;648;46021;-86
2021/11/02 13:43:52;;;;;;;20.40;18.40;;;;;;;;;;143742;565;47020;-86
2021/11/02 13:46:22;;;;;;;24.10;20.20;;;;;;;;;;143739;589;46021;-88
2021/11/02 13:48:49;;;;;;;25.08;19.75;;;;;;;;;;143740;578;46020;-88
2021/11/02 13:51:17;;;;;;;24.45;19.80;;;;;;;;;;143740;578;47020;-86
2021/11/02 13:53:45;;;;;;;22.83;20.30;;;;;;;;;;143742;587;46020;-84
2021/11/02 13:56:18;;;;;;;22.02;18.23;;;;;;;;;;143741;597;46051;-84
2021/11/02 13:58:45;;;;;;;22.08;18.70;;;;;;;;;;143739;566;46916;-83
2021/11/02 14:01:32;;;;;;;21.58;17.85;;;;;;;;;;143740;583;46020;-84
2021/11/02 14:04:27;;;;;;;24.40;19.58;;;;;;;;;;143741;604;46020;-84
2021/11/02 14:07:25;;;;;;;22.73;18.77;;;;;;;;;;143744;590;46024;-87
2021/11/02 14:09:55;;;;;;;25.42;19.17;;;;;;;;;;143741;576;46011;-89
2021/11/02 14:12:25;;;;;;;22.48;19.48;;;;;;;;;;143738;585;47020;-89
2021/11/02 14:15:15;;;;;;;24.17;20.20;;;;;;;;;;143744;591;46010;-90
2021/11/02 14:17:47;;;;;;;25.85;20.00;;;;;;;;;;143739;585;47023;-89
2021/11/02 14:20:34;;;;;;;24.58;21.48;;;;;;;;;;143738;582;46010;-84
2021/11/02 14:23:06;;;;;;;24.12;21.35;;;;;;;;;;143741;576;47013;-87
2021/11/02 14:25:45;;;;;;;30.48;22.73;;;;;;;;;;143743;564;46010;-86
2021/11/02 14:28:12;;;;;;;25.08;19.90;;;;;;;;;;143740;570;47022;-88
2021/11/02 14:30:47;;;;;;;25.37;22.35;;;;;;;;;;143739;765;46010;-86
2021/11/02 14:33:40;;;;;;;28.20;21.90;;;;;;;;;;143743;569;46021;-88
2021/11/02 14:36:06;;;;;;;28.33;21.60;;;;;;;;;;143743;600;46010;-89
2021/11/02 14:38:54;;;;;;;28.50;21.67;;;;;;;;;;143738;663;47021;-88
2021/11/02 14:41:29;;;;;;;25.05;22.40;;;;;;;;;;143739;590;46010;-88
2021/11/02 14:44:33;;;;;;;24.08;21.52;;;;;;;;;;143744;602;46020;-87
2021/11/02 14:47:02;;;;;;;23.87;21.25;;;;;;;;;;143743;654;46010;-86
2021/11/02 14:49:41;;;;;;;27.37;22.45;;;;;;;;;;143742;683;46022;-87
2021/11/02 14:52:10;;;;;;;30.15;21.42;;;;;;;;;;143740;594;46010;-87
2021/11/02 14:54:47;;;;;;;27.83;20.40;;;;;;;;;;143741;661;46021;-87
2021/11/02 14:57:54;;;;;;;31.33;20.55;;;;;;;;;;143743;564;46010;-88
2021/11/02 15:00:37;;;;;;;26.37;22.55;;;;;;;;;;143740;592;47020;-88
2021/11/02 15:03:15;;;;;;;28.08;21.70;;;;;;;;;;143744;569;46010;-88
2021/11/02 15:05:43;;;;;;;26.70;22.73;;;;;;;;;;143739;585;47020;-87
2021/11/02 15:08:38;;;;;;;;;;;;;;;;;;;;;
2021/11/02 15:11:02;;;;;;;23.50;21.20;;;;;;;;;;143739;564;47020;-86
2021/11/02 15:13:29;;;;;;;26.25;20.98;;;;;;;;;;143744;569;46918;-87
2021/11/02 15:15:56;;;;;;;27.30;22.77;;;;;;;;;;143744;581;46021;-86
2021/11/02 15:18:22;;;;;;;24.12;21.50;;;;;;;;;;143744;667;46020;-87
2021/11/02 15:20:49;;;;;;;26.45;22.02;;;;;;;;;;143740;670;47022;-89
2021/11/02 15:23:17;;;;;;;24.87;22.23;;;;;;;;;;143740;605;46010;-86
2021/11/02 15:25:44;;;;;;;36.65;21.60;;;;;;;;;;143742;569;47020;-87
2021/11/02 15:28:12;;;;;;;28.67;23.70;;;;;;;;;;143743;569;47020;-88
2021/11/02 15:30:38;;;;;;;30.50;23.23;;;;;;;;;;143740;605;47022;-88
2021/11/02 15:33:05;;;;;;;25.98;23.27;;;;;;;;;;143740;570;46010;-87
2021/11/02 15:35:32;;;;;;;28.62;23.95;;;;;;;;;;143741;710;47020;-88
2021/11/02 15:38:00;;;;;;;27.17;24.33;;;;;;;;;;143740;585;46020;-89
2021/11/02 15:40:42;;;;;;;30.83;24.90;;;;;;;;;;143740;725;47023;-88
2021/11/02 15:43:11;;;;;;;27.77;25.05;;;;;;;;;;143738;575;46919;-85
2021/11/02 15:45:45;;;;;;;29.70;26.58;;;;;;;;;;143742;591;47020;-88
2021/11/02 15:48:19;;;;;;;26.62;24.00;;;;;;;;;;143742;583;46010;-86
2021/11/02 15:50:50;;;;;;;31.50;25.80;;;;;;;;;;143738;574;47022;-87
2021/11/02 15:53:23;;;;;;;28.50;25.60;;;;;;;;;;143741;611;46021;-89
2021/11/02 15:55:58;;;;;;;27.30;24.42;;;;;;;;;;143737;564;47021;-86
2021/11/02 15:58:28;;;;;;;32.00;26.55;;;;;;;;;;143747;571;46020;-86
2021/11/02 16:00:55;;;;;;;32.85;26.65;;;;;;;;;;143740;630;47021;-87
2021/11/02 16:03:38;;;;;;;34.42;27.35;;;;;;;;;;143739;636;46010;-89
2021/11/02 16:06:10;;;;;;;30.75;27.65;;;;;;;;;;143743;566;47020;-90
2021/11/02 16:08:40;;;;;;;42.47;32.77;;;;;;;;;;143744;583;46010;-92
2021/11/02 16:11:08;;;;;;;40.22;32.08;;;;;;;;;;143740;648;47020;-94
2021/11/02 16:13:37;;;;;;;41.42;30.42;;;;;;;;;;143737;571;47010;-91
2021/11/02 16:16:06;;;;;;;39.47;30.77;;;;;;;;;;143742;565;47021;-91
2021/11/02 16:18:37;;;;;;;35.70;29.33;;;;;;;;;;143747;577;46020;-91
2021/11/02 16:21:09;;;;;;;36.38;28.87;;;;;;;;;;143738;564;46014;-93
2021/11/02 16:23:49;;;;;;;34.92;27.70;;;;;;;;;;143740;581;46012;-93
2021/11/02 16:26:27;;;;;;;30.50;26.30;;;;;;;;;;143741;565;47020;-92
2021/11/02 16:28:58;;;;;;;30.67;27.25;;;;;;;;;;143743;573;46010;-89
2021/11/02 16:31:30;;;;;;;29.35;25.95;;;;;;;;;;143739;691;46021;-89
2021/11/02 16:35:03;;;;;;;;;;;;;;;;;;;;;
2021/11/02 16:37:38;;;;;;;46.70;30.27;;;;;;;;;;143735;588;46010;-60
2021/11/02 16:40:27;;;;;;;45.38;34.30;;;;;;;;;;143733;612;46012;-59
2021/11/02 16:43:05;;;;;;;40.00;32.70;;;;;;;;;;143733;606;47012;-62
2021/11/02 16:45:34;;;;;;;36.97;31.45;;;;;;;;;;143735;582;46012;-61
2021/11/02 16:48:04;;;;;;;38.67;30.90;;;;;;;;;;143736;570;47020;-62
2021/11/02 16:50:39;;;;;;;43.40;32.13;;;;;;;;;;143735;596;47010;-62
2021/11/02 16:53:25;;;;;;;41.40;33.13;;;;;;;;;;143732;615;47022;-61
2021/11/02 16:55:52;;;;;;;40.40;32.00;;;;;;;;;;143734;569;46010;-61
2021/11/02 16:58:28;;;;;;;47.55;33.10;;;;;;;;;;143734;609;47020;-62
2021/11/02 17:01:19;;;;;;;38.38;32.80;;;;;;;;;;143737;606;47020;-63
2021/11/02 17:03:46;;;;;;;37.58;30.25;;;;;;;;;;143733;579;47022;-61
2021/11/02 17:06:15;;;;;;;46.72;30.67;;;;;;;;;;143737;591;46010;-62
2021/11/02 17:09:12;;;;;;;43.08;31.20;;;;;;;;;;143734;623;47021;-62
2021/11/02 17:45:19;;;;;;;30.95;26.87;;;;;;;;;;143745;582;45022;-92
2021/11/02 17:54:23;;;;;;;;;;;;;;;;;;;;;
2021/11/02 18:17:31;;;;;;;53.42;37.95;;;;;;;;;;143740;461;46014;-92
2021/11/02 19:11:44;;;;;;;64.15;52.20;;;;;;;;;;143745;585;46020;-91
2021/11/02 19:14:12;;;;;;;65.65;52.62;;;;;;;;;;143738;595;47021;-92
2021/11/02 19:16:40;;;;;;;63.90;52.42;;;;;;;;;;143740;601;46010;-91
2021/11/02 19:19:11;;;;;;;60.60;53.08;;;;;;;;;;143737;574;46022;-93
2021/11/02 19:21:40;;;;;;;63.08;50.85;;;;;;;;;;143742;569;46021;-91
2021/11/02 19:24:07;;;;;;;70.72;56.00;;;;;;;;;;143737;698;46020;-91
2021/11/02 19:26:35;;;;;;;63.08;53.45;;;;;;;;;;143736;638;47010;-91
2021/11/02 19:29:04;;;;;;;65.10;55.20;;;;;;;;;;143736;578;47022;-92
2021/11/02 19:31:40;;;;;;;66.55;53.33;;;;;;;;;;143743;569;46010;-92
2021/11/02 19:34:08;;;;;;;76.30;59.42;;;;;;;;;;143739;602;46020;-92
2021/11/02 19:36:38;;;;;;;73.55;58.30;;;;;;;;;;143740;577;46011;-92
2021/11/02 19:39:06;;;;;;;73.85;60.30;;;;;;;;;;143740;725;46023;-94
2021/11/02 19:41:36;;;;;;;69.75;56.28;;;;;;;;;;143738;664;47010;-93
2021/11/02 19:44:04;;;;;;;68.22;49.65;;;;;;;;;;143740;565;45021;-95
2021/11/02 19:46:33;;;;;;;62.45;48.63;;;;;;;;;;143742;564;45047;-93
2021/11/02 19:49:18;;;;;;;52.25;42.05;;;;;;;;;;143735;569;46022;-92
2021/11/02 19:51:46;;;;;;;47.22;39.30;;;;;;;;;;143738;586;45917;-93
2021/11/02 19:54:14;;;;;;;44.72;39.70;;;;;;;;;;143740;661;46020;-93
2021/11/02 19:56:42;;;;;;;71.10;59.15;;;;;;;;;;143742;564;46018;-91
2021/11/02 19:59:09;;;;;;;76.18;62.90;;;;;;;;;;143744;740;46021;-92
2021/11/02 20:01:36;;;;;;;93.05;71.97;;;;;;;;;;143741;589;45918;-91
2021/11/02 20:04:04;;;;;;;80.97;63.35;;;;;;;;;;143739;676;46020;-91
2021/11/02 20:06:46;;;;;;;71.12;56.78;;;;;;;;;;143737;564;46011;-91
2021/11/02 20:09:17;;;;;;;66.55;53.15;;;;;;;;;;143739;636;47023;-91
2021/11/02 20:11:51;;;;;;;65.93;53.33;;;;;;;;;;143737;619;46010;-94
2021/11/02 20:43:54;;;;;;;57.58;47.83;;;;;;;;;;143742;571;46023;-92
2021/11/02 20:46:23;;;;;;;64.70;50.92;;;;;;;;;;143741;594;47018;-93
2021/11/02 20:49:21;;;;;;;59.47;49.08;;;;;;;;;;143741;594;47010;-92
2021/11/02 20:54:11;;;;;;;62.85;53.45;;;;;;;;;;143861;569;46022;-93
2021/11/02 20:56:39;;;;;;;68.50;52.08;;;;;;;;;;143748;697;46011;-92
2021/11/02 20:59:06;;;;;;;67.12;54.38;;;;;;;;;;143742;603;46020;-92
2021/11/02 21:01:33;;;;;;;63.50;51.13;;;;;;;;;;143743;701;46010;-92
2021/11/02 21:04:01;;;;;;;57.25;48.87;;;;;;;;;;143746;587;46021;-93
2021/11/02 21:06:34;;;;;;;67.80;51.08;;;;;;;;;;143744;728;46000;-94
2021/11/02 21:09:10;;;;;;;102.82;77.72;;;;;;;;;;143745;686;47020;-92
2021/11/02 21:11:43;;;;;;;85.00;69.20;;;;;;;;;;143741;742;46021;-90
2021/11/02 21:14:15;;;;;;;92.85;67.82;;;;;;;;;;143739;587;47020;-95
2021/11/02 21:16:43;;;;;;;102.00;74.03;;;;;;;;;;143738;569;46020;-93
2021/11/02 21:19:13;;;;;;;81.28;65.68;;;;;;;;;;143739;649;47022;-93
2021/11/02 21:21:46;;;;;;;89.93;65.40;;;;;;;;;;143744;589;46020;-90
2021/11/02 21:24:13;;;;;;;;;;;;;;;;;;143744;977;47020;-93
2021/11/02 21:26:40;;;;;;;86.37;62.62;;;;;;;;;;143756;581;47021;-89
2021/11/02 21:29:08;;;;;;;77.90;57.65;;;;;;;;;;143740;586;47020;-91
2021/11/02 21:31:34;;;;;;;78.55;58.22;;;;;;;;;;143742;569;46020;-92
2021/11/02 21:34:03;;;;;;;68.75;56.78;;;;;;;;;;143739;645;47021;-90
2021/11/02 21:36:37;;;;;;;64.55;48.67;;;;;;;;;;143742;699;46012;-94
2021/11/02 21:39:05;;;;;;;65.37;49.63;;;;;;;;;;143743;577;46020;-92
2021/11/02 21:41:42;;;;;;;66.03;50.12;;;;;;;;;;143742;634;45917;-95
2021/11/02 21:44:29;;;;;;;57.53;47.03;;;;;;;;;;143744;632;47020;-92
2021/11/02 21:47:07;;;;;;;68.03;50.03;;;;;;;;;;143745;577;46012;-91
2021/11/02 21:49:50;;;;;;;62.78;51.17;;;;;;;;;;143743;591;46021;-93
2021/11/02 21:52:24;;;;;;;70.82;53.22;;;;;;;;;;143747;687;45917;-93
2021/11/02 21:55:05;;;;;;;67.03;51.60;;;;;;;;;;143748;585;46020;-93
2021/11/02 21:58:10;;;;;;;64.93;50.97;;;;;;;;;;143749;590;45021;-92
2021/11/02 22:00:46;;;;;;;61.92;50.42;;;;;;;;;;143746;600;45024;-92
2021/11/02 22:03:45;;;;;;;63.90;49.87;;;;;;;;;;143747;584;45915;-93
2021/11/02 22:06:36;;;;;;;60.05;48.65;;;;;;;;;;143746;570;45020;-91
2021/11/02 22:09:11;;;;;;;71.37;50.17;;;;;;;;;;143748;579;45020;-94
2021/11/02 22:11:38;;;;;;;66.05;50.92;;;;;;;;;;143738;587;48021;-92
2021/11/02 22:14:05;;;;;;;65.37;49.53;;;;;;;;;;143742;576;46012;-91
2021/11/02 22:16:34;;;;;;;65.00;48.72;;;;;;;;;;143748;618;46014;-91
2021/11/02 22:19:07;;;;;;;59.88;48.67;;;;;;;;;;143742;573;47021;-92
2021/11/02 22:21:51;;;;;;;60.42;47.22;;;;;;;;;;143741;583;46911;-92
2021/11/02 22:24:42;;;;;;;66.10;48.33;;;;;;;;;;143741;654;47020;-93
2021/11/02 22:27:22;;;;;;;;;;;;;;;;;;;;;
2021/11/02 22:29:51;;;;;;;65.50;48.75;;;;;;;;;;143742;698;46018;-92
2021/11/02 22:32:24;;;;;;;53.47;40.80;;;;;;;;;;143743;664;46022;-91
2021/11/02 22:34:57;;;;;;;52.45;40.67;;;;;;;;;;143743;686;46916;-93
2021/11/02 22:37:25;;;;;;;42.85;38.10;;;;;;;;;;143744;655;46020;-92
2021/11/02 22:39:55;;;;;;;48.78;40.55;;;;;;;;;;143746;631;46013;-94
2021/11/02 22:42:26;;;;;;;59.67;45.25;;;;;;;;;;143738;567;47020;-93
2021/11/02 22:44:53;;;;;;;55.08;41.85;;;;;;;;;;143744;593;46020;-91
2021/11/02 22:47:22;;;;;;;52.03;40.28;;;;;;;;;;143748;564;46020;-94
2021/11/02 22:49:50;;;;;;;45.50;37.30;;;;;;;;;;143745;588;46012;-91
2021/11/02 22:52:18;;;;;;;50.05;37.17;;;;;;;;;;143747;602;45022;-94
2021/11/02 22:54:45;;;;;;;48.92;35.95;;;;;;;;;;143745;662;46012;-95
2021/11/02 22:57:13;;;;;;;38.42;32.83;;;;;;;;;;143746;564;46021;-92
2021/11/02 22:59:40;;;;;;;41.17;33.22;;;;;;;;;;143740;598;46018;-93
2021/11/02 23:02:09;;;;;;;45.72;36.63;;;;;;;;;;143741;581;46022;-91
2021/11/02 23:04:37;;;;;;;46.95;35.33;;;;;;;;;;143745;598;46012;-90
2021/11/02 23:07:05;;;;;;;52.10;39.88;;;;;;;;;;143745;587;46020;-94
2021/11/02 23:09:33;;;;;;;43.72;37.67;;;;;;;;;;143740;563;46020;-92
2021/11/02 23:12:01;;;;;;;47.25;36.55;;;;;;;;;;143743;617;46021;-92
2021/11/02 23:14:29;;;;;;;45.63;38.33;;;;;;;;;;143743;596;46012;-92
2021/11/02 23:16:56;;;;;;;41.25;33.97;;;;;;;;;;143746;593;46018;-89
2021/11/02 23:19:23;;;;;;;44.88;34.22;;;;;;;;;;143746;606;47021;-90
2021/11/02 23:22:33;;;;;;;44.67;32.47;;;;;;;;;;143741;637;47022;-91
2021/11/02 23:25:14;;;;;;;44.97;34.42;;;;;;;;;;143749;580;45022;-93
2021/11/02 23:27:42;;;;;;;41.72;33.88;;;;;;;;;;143743;613;46020;-92
2021/11/02 23:30:13;;;;;;;43.60;33.88;;;;;;;;;;143747;593;46018;-92
2021/11/02 23:32:40;;;;;;;40.28;32.22;;;;;;;;;;143743;564;47021;-92
2021/11/02 23:35:10;;;;;;;42.70;30.50;;;;;;;;;;143743;570;46012;-92
2021/11/02 23:37:37;;;;;;;30.35;25.02;;;;;;;;;;143744;634;47020;-93
2021/11/02 23:40:07;;;;;;;30.73;22.40;;;;;;;;;;143747;589;46013;-91
2021/11/02 23:42:34;;;;;;;31.12;23.48;;;;;;;;;;143740;575;46014;-92
2021/11/02 23:45:01;;;;;;;32.33;22.37;;;;;;;;;;143742;602;46012;-92
2021/11/02 23:47:29;;;;;;;30.27;23.83;;;;;;;;;;143745;564;46021;-90
2021/11/02 23:49:56;;;;;;;30.67;23.45;;;;;;;;;;143747;586;46020;-91
2021/11/02 23:52:24;;;;;;;39.70;27.60;;;;;;;;;;143741;580;47020;-90
2021/11/02 23:54:54;;;;;;;48.60;34.33;;;;;;;;;;143741;599;47013;-91
2021/11/02 23:57:28;;;;;;;43.42;32.72;;;;;;;;;;143743;670;46020;-93
